sensor_id;sensor_type;location;lat;lon;timestamp;pressure;altitude;pressure_sealevel;temperature;humidity
50380;BME280;37474;59.468;18.040;2022-12-26T00:01:26;101374.56;;;0.19;100.00
50380;BME280;37474;59.468;18.040;2022-12-26T00:03:56;101367.75;;;0.21;100.00
50380;BME280;37474;59.468;18.040;2022-12-26T00:06:27;101368.63;;;0.23;100.00
50380;BME280;37474;59.468;18.040;2022-12-26T00:08:55;101366.06;;;0.24;100.00
50380;BME280;37474;59.468;18.040;2022-12-26T00:11:24;101362.66;;;0.32;100.00
50380;BME280;37474;59.468;18.040;2022-12-26T00:13:53;101363.53;;;0.24;100.00
50380;BME280;37474;59.468;18.040;2022-12-26T00:16:22;101370.34;;;0.36;100.00
50380;BME280;37474;59.468;18.040;2022-12-26T00:18:50;101335.47;;;0.15;100.00
50380;BME280;37474;59.468;18.040;2022-12-26T00:21:20;101355.03;;;0.35;100.00
50380;BME280;37474;59.468;18.040;2022-12-26T00:23:49;101325.28;;;0.12;100.00
50380;BME280;37474;59.468;18.040;2022-12-26T00:26:19;101363.53;;;0.32;100.00
50380;BME280;37474;59.468;18.040;2022-12-26T00:28:47;101364.41;;;0.40;100.00
50380;BME280;37474;59.468;18.040;2022-12-26T00:31:16;101367.78;;;0.38;100.00
50380;BME280;37474;59.468;18.040;2022-12-26T00:33:45;101355.91;;;0.40;100.00
50380;BME280;37474;59.468;18.040;2022-12-26T00:36:15;101337.16;;;0.25;100.00
50380;BME280;37474;59.468;18.040;2022-12-26T00:38:45;101352.47;;;0.36;100.00
50380;BME280;37474;59.468;18.040;2022-12-26T00:41:14;101324.44;;;0.22;100.00
50380;BME280;37474;59.468;18.040;2022-12-26T00:43:42;101343.97;;;0.48;100.00
50380;BME280;37474;59.468;18.040;2022-12-26T00:46:10;101337.19;;;0.47;100.00
50380;BME280;37474;59.468;18.040;2022-12-26T00:48:39;101338.03;;;0.43;100.00
50380;BME280;37474;59.468;18.040;2022-12-26T00:51:06;101324.41;;;0.50;100.00
50380;BME280;37474;59.468;18.040;2022-12-26T00:53:34;101307.44;;;0.29;100.00
50380;BME280;37474;59.468;18.040;2022-12-26T00:56:05;101331.22;;;0.48;100.00
50380;BME280;37474;59.468;18.040;2022-12-26T00:58:33;101326.13;;;0.51;100.00
50380;BME280;37474;59.468;18.040;2022-12-26T01:01:09;101322.72;;;0.52;100.00
50380;BME280;37474;59.468;18.040;2022-12-26T01:03:40;101287.88;;;0.30;100.00
50380;BME280;37474;59.468;18.040;2022-12-26T01:06:08;101323.56;;;0.54;100.00
50380;BME280;37474;59.468;18.040;2022-12-26T01:08:36;101245.38;;;0.15;100.00
50380;BME280;37474;59.468;18.040;2022-12-26T01:11:10;101306.56;;;0.53;100.00
50380;BME280;37474;59.468;18.040;2022-12-26T01:13:38;101308.25;;;0.48;100.00
50380;BME280;37474;59.468;18.040;2022-12-26T01:16:07;101303.16;;;0.57;100.00
50380;BME280;37474;59.468;18.040;2022-12-26T01:18:35;101258.13;;;0.21;100.00
50380;BME280;37474;59.468;18.040;2022-12-26T01:21:07;101301.44;;;0.48;100.00
50380;BME280;37474;59.468;18.040;2022-12-26T01:23:35;101307.41;;;0.58;100.00
50380;BME280;37474;59.468;18.040;2022-12-26T01:26:03;101294.66;;;0.58;100.00
50380;BME280;37474;59.468;18.040;2022-12-26T01:28:46;101299.75;;;0.55;100.00
50380;BME280;37474;59.468;18.040;2022-12-26T01:31:15;101297.19;;;0.58;100.00
50380;BME280;37474;59.468;18.040;2022-12-26T01:33:43;101297.19;;;0.55;100.00
50380;BME280;37474;59.468;18.040;2022-12-26T01:36:11;101287.00;;;0.53;100.00
50380;BME280;37474;59.468;18.040;2022-12-26T01:38:39;101284.44;;;0.57;100.00
50380;BME280;37474;59.468;18.040;2022-12-26T01:41:07;101285.28;;;0.59;100.00
50380;BME280;37474;59.468;18.040;2022-12-26T01:43:49;101280.19;;;0.62;100.00
50380;BME280;37474;59.468;18.040;2022-12-26T01:46:20;101275.97;;;0.56;100.00
50380;BME280;37474;59.468;18.040;2022-12-26T01:48:49;101286.16;;;0.56;100.00
50380;BME280;37474;59.468;18.040;2022-12-26T01:51:20;101269.97;;;0.60;100.00
50380;BME280;37474;59.468;18.040;2022-12-26T01:53:52;101270.84;;;0.62;100.00
50380;BME280;37474;59.468;18.040;2022-12-26T01:56:44;101240.25;;;0.45;100.00
50380;BME280;37474;59.468;18.040;2022-12-26T01:59:17;101267.44;;;0.57;100.00
50380;BME280;37474;59.468;18.040;2022-12-26T02:01:46;101241.09;;;0.41;100.00
50380;BME280;37474;59.468;18.040;2022-12-26T02:04:19;101269.13;;;0.64;100.00
50380;BME280;37474;59.468;18.040;2022-12-26T02:07:06;101264.88;;;0.59;100.00
50380;BME280;37474;59.468;18.040;2022-12-26T02:09:35;101258.06;;;0.65;100.00
50380;BME280;37474;59.468;18.040;2022-12-26T02:12:07;101263.16;;;0.68;100.00
50380;BME280;37474;59.468;18.040;2022-12-26T02:15:00;101260.59;;;0.70;100.00
50380;BME280;37474;59.468;18.040;2022-12-26T02:17:29;101254.63;;;0.71;100.00
50380;BME280;37474;59.468;18.040;2022-12-26T02:20:01;101252.09;;;0.69;100.00
50380;BME280;37474;59.468;18.040;2022-12-26T02:31:21;101241.00;;;0.76;100.00
50380;BME280;37474;59.468;18.040;2022-12-26T02:34:01;101239.31;;;0.77;100.00
50380;BME280;37474;59.468;18.040;2022-12-26T02:36:45;101195.16;;;0.52;100.00
50380;BME280;37474;59.468;18.040;2022-12-26T02:39:25;101240.16;;;0.77;100.00
50380;BME280;37474;59.468;18.040;2022-12-26T02:42:20;101234.19;;;0.77;100.00
50380;BME280;37474;59.468;18.040;2022-12-26T02:44:53;101229.13;;;0.78;100.00
50380;BME280;37474;59.468;18.040;2022-12-26T02:48:04;101232.50;;;0.84;100.00
50380;BME280;37474;59.468;18.040;2022-12-26T02:50:41;101229.94;;;0.77;100.00
50380;BME280;37474;59.468;18.040;2022-12-26T02:53:38;101218.06;;;0.73;100.00
50380;BME280;37474;59.468;18.040;2022-12-26T02:56:33;101217.19;;;0.81;100.00
50380;BME280;37474;59.468;18.040;2022-12-26T02:59:25;101218.00;;;0.89;100.00
50380;BME280;37474;59.468;18.040;2022-12-26T03:02:27;101210.38;;;0.81;100.00
50380;BME280;37474;59.468;18.040;2022-12-26T03:05:19;101190.81;;;0.75;100.00
50380;BME280;37474;59.468;18.040;2022-12-26T03:08:09;101210.34;;;0.83;100.00
50380;BME280;37474;59.468;18.040;2022-12-26T03:10:57;101212.91;;;0.86;100.00
50380;BME280;37474;59.468;18.040;2022-12-26T03:13:44;101221.44;;;0.85;100.00
50380;BME280;37474;59.468;18.040;2022-12-26T03:16:13;101183.19;;;0.72;100.00
50380;BME280;37474;59.468;18.040;2022-12-26T03:19:02;101212.91;;;0.86;100.00
50380;BME280;37474;59.468;18.040;2022-12-26T03:21:35;101209.53;;;0.84;100.00
50380;BME280;37474;59.468;18.040;2022-12-26T03:24:15;101203.53;;;0.88;100.00
50380;BME280;37474;59.468;18.040;2022-12-26T03:26:47;101160.28;;;0.54;100.00
50380;BME280;37474;59.468;18.040;2022-12-26T03:29:17;101212.03;;;0.88;100.00
50380;BME280;37474;59.468;18.040;2022-12-26T03:32:17;101202.72;;;0.86;100.00
50380;BME280;37474;59.468;18.040;2022-12-26T03:34:45;101208.66;;;0.83;100.00
50380;BME280;37474;59.468;18.040;2022-12-26T03:40:23;101183.13;;;0.83;100.00
50380;BME280;37474;59.468;18.040;2022-12-26T03:43:17;101189.09;;;0.81;100.00
50380;BME280;37474;59.468;18.040;2022-12-26T03:46:11;101172.09;;;0.79;100.00
50380;BME280;37474;59.468;18.040;2022-12-26T03:49:06;101143.22;;;0.65;100.00
50380;BME280;37474;59.468;18.040;2022-12-26T03:51:59;101162.72;;;0.83;100.00
50380;BME280;37474;59.468;18.040;2022-12-26T03:54:53;101159.38;;;0.73;100.00
50380;BME280;37474;59.468;18.040;2022-12-26T03:57:47;101171.25;;;0.79;100.00
50380;BME280;37474;59.468;18.040;2022-12-26T04:00:35;101155.09;;;0.78;100.00
50380;BME280;37474;59.468;18.040;2022-12-26T04:03:23;101161.91;;;0.76;100.00
50380;BME280;37474;59.468;18.040;2022-12-26T04:06:15;101161.06;;;0.79;100.00
50380;BME280;37474;59.468;18.040;2022-12-26T04:09:07;101153.38;;;0.84;100.00
50380;BME280;37474;59.468;18.040;2022-12-26T04:11:55;101151.66;;;0.83;100.00
50380;BME280;37474;59.468;18.040;2022-12-26T04:14:45;101155.91;;;0.82;100.00
50380;BME280;37474;59.468;18.040;2022-12-26T04:17:37;101151.69;;;0.79;100.00
50380;BME280;37474;59.468;18.040;2022-12-26T04:23:15;101142.34;;;0.78;100.00
50380;BME280;37474;59.468;18.040;2022-12-26T04:26:06;101155.03;;;0.91;100.00
50380;BME280;37474;59.468;18.040;2022-12-26T04:28:53;101146.56;;;0.86;100.00
50380;BME280;37474;59.468;18.040;2022-12-26T04:31:44;101144.84;;;0.85;100.00
50380;BME280;37474;59.468;18.040;2022-12-26T04:34:36;101125.28;;;0.85;100.00
50380;BME280;37474;59.468;18.040;2022-12-26T04:37:27;101135.50;;;0.84;100.00
50380;BME280;37474;59.468;18.040;2022-12-26T04:40:19;101143.94;;;0.96;100.00
50380;BME280;37474;59.468;18.040;2022-12-26T04:43:07;101141.41;;;0.89;100.00
50380;BME280;37474;59.468;18.040;2022-12-26T04:46:17;101141.41;;;0.92;100.00
50380;BME280;37474;59.468;18.040;2022-12-26T04:48:47;101103.25;;;0.67;100.00
50380;BME280;37474;59.468;18.040;2022-12-26T04:51:35;101139.69;;;0.97;100.00
50380;BME280;37474;59.468;18.040;2022-12-26T04:54:04;101140.53;;;0.97;100.00
50380;BME280;37474;59.468;18.040;2022-12-26T04:56:32;101136.28;;;0.93;100.00
50380;BME280;37474;59.468;18.040;2022-12-26T04:59:00;101130.34;;;0.91;100.00
50380;BME280;37474;59.468;18.040;2022-12-26T05:01:29;101129.47;;;0.97;100.00
50380;BME280;37474;59.468;18.040;2022-12-26T05:04:16;101119.28;;;0.92;100.00
50380;BME280;37474;59.468;18.040;2022-12-26T05:07:04;101118.41;;;0.96;100.00
50380;BME280;37474;59.468;18.040;2022-12-26T05:09:51;101117.56;;;0.93;100.00
50380;BME280;37474;59.468;18.040;2022-12-26T05:12:20;101119.28;;;0.92;100.00
50380;BME280;37474;59.468;18.040;2022-12-26T05:14:48;101115.88;;;0.89;100.00
50380;BME280;37474;59.468;18.040;2022-12-26T05:17:17;101115.88;;;0.95;100.00
50380;BME280;37474;59.468;18.040;2022-12-26T05:20:03;101103.97;;;0.95;100.00
50380;BME280;37474;59.468;18.040;2022-12-26T05:22:49;101090.38;;;0.90;100.00
50380;BME280;37474;59.468;18.040;2022-12-26T05:25:46;101098.03;;;0.89;100.00
50380;BME280;37474;59.468;18.040;2022-12-26T05:28:32;101094.59;;;0.93;100.00
50380;BME280;37474;59.468;18.040;2022-12-26T05:31:10;101099.75;;;0.90;100.00
50380;BME280;37474;59.468;18.040;2022-12-26T05:33:40;101062.41;;;0.73;100.00
50380;BME280;37474;59.468;18.040;2022-12-26T05:36:29;101097.16;;;0.96;100.00
50380;BME280;37474;59.468;18.040;2022-12-26T05:38:58;101092.88;;;0.96;100.00
50380;BME280;37474;59.468;18.040;2022-12-26T05:41:27;101090.34;;;0.92;100.00
50380;BME280;37474;59.468;18.040;2022-12-26T05:43:55;101085.25;;;0.95;100.00
50380;BME280;37474;59.468;18.040;2022-12-26T05:46:23;101084.38;;;0.93;100.00
50380;BME280;37474;59.468;18.040;2022-12-26T05:48:52;101087.75;;;0.98;100.00
50380;BME280;37474;59.468;18.040;2022-12-26T05:51:20;101093.72;;;0.97;100.00
50380;BME280;37474;59.468;18.040;2022-12-26T05:53:47;101080.09;;;0.99;100.00
50380;BME280;37474;59.468;18.040;2022-12-26T05:56:16;101087.72;;;1.04;100.00
50380;BME280;37474;59.468;18.040;2022-12-26T05:58:45;101085.16;;;1.07;100.00
50380;BME280;37474;59.468;18.040;2022-12-26T06:01:15;101083.47;;;1.06;100.00
50380;BME280;37474;59.468;18.040;2022-12-26T06:03:46;101089.38;;;1.10;100.00
50380;BME280;37474;59.468;18.040;2022-12-26T06:06:16;101090.28;;;1.07;100.00
50380;BME280;37474;59.468;18.040;2022-12-26T06:08:46;101084.31;;;1.07;100.00
50380;BME280;37474;59.468;18.040;2022-12-26T06:11:15;101086.84;;;1.05;100.00
50380;BME280;37474;59.468;18.040;2022-12-26T06:13:43;101082.59;;;1.07;100.00
50380;BME280;37474;59.468;18.040;2022-12-26T06:16:13;101071.53;;;1.08;100.00
50380;BME280;37474;59.468;18.040;2022-12-26T06:18:41;101080.88;;;1.09;100.00
50380;BME280;37474;59.468;18.040;2022-12-26T06:21:11;101076.63;;;1.10;100.00
50380;BME280;37474;59.468;18.040;2022-12-26T06:23:41;101066.44;;;1.08;100.00
50380;BME280;37474;59.468;18.040;2022-12-26T06:26:09;101066.41;;;1.11;100.00
50380;BME280;37474;59.468;18.040;2022-12-26T06:28:39;101059.63;;;1.07;100.00
50380;BME280;37474;59.468;18.040;2022-12-26T06:31:10;101060.44;;;1.09;100.00
50380;BME280;37474;59.468;18.040;2022-12-26T06:33:40;101045.16;;;1.08;100.00
50380;BME280;37474;59.468;18.040;2022-12-26T06:36:10;101050.22;;;1.11;100.00
50380;BME280;37474;59.468;18.040;2022-12-26T06:38:38;101048.53;;;1.10;100.00
50380;BME280;37474;59.468;18.040;2022-12-26T06:41:10;101053.66;;;1.11;100.00
50380;BME280;37474;59.468;18.040;2022-12-26T06:43:38;101043.47;;;1.07;100.00
50380;BME280;37474;59.468;18.040;2022-12-26T06:46:09;101046.78;;;1.15;100.00
50380;BME280;37474;59.468;18.040;2022-12-26T06:48:38;101035.75;;;1.13;100.00
50380;BME280;37474;59.468;18.040;2022-12-26T06:51:11;101045.09;;;1.15;100.00
50380;BME280;37474;59.468;18.040;2022-12-26T06:53:40;101042.56;;;1.12;100.00
50380;BME280;37474;59.468;18.040;2022-12-26T06:56:11;101043.38;;;1.17;100.00
50380;BME280;37474;59.468;18.040;2022-12-26T06:58:40;101040.81;;;1.17;100.00
50380;BME280;37474;59.468;18.040;2022-12-26T07:01:09;101043.34;;;1.20;100.00
50380;BME280;37474;59.468;18.040;2022-12-26T07:03:38;101047.63;;;1.18;100.00
50380;BME280;37474;59.468;18.040;2022-12-26T07:06:20;101049.31;;;1.19;100.00
50380;BME280;37474;59.468;18.040;2022-12-26T07:08:49;101045.88;;;1.22;100.00
50380;BME280;37474;59.468;18.040;2022-12-26T07:11:20;101040.75;;;1.26;100.00
50380;BME280;37474;59.468;18.040;2022-12-26T07:13:48;101043.31;;;1.28;100.00
50380;BME280;37474;59.468;18.040;2022-12-26T07:16:16;101034.81;;;1.24;100.00
50380;BME280;37474;59.468;18.040;2022-12-26T07:18:44;101033.09;;;1.28;100.00
50380;BME280;37474;59.468;18.040;2022-12-26T07:21:14;101024.56;;;1.29;100.00
50380;BME280;37474;59.468;18.040;2022-12-26T07:23:42;101022.78;;;1.36;100.00
50380;BME280;37474;59.468;18.040;2022-12-26T07:26:11;101027.06;;;1.34;100.00
50380;BME280;37474;59.468;18.040;2022-12-26T07:28:40;101029.56;;;1.41;100.00
50380;BME280;37474;59.468;18.040;2022-12-26T07:31:08;101021.03;;;1.41;100.00
50380;BME280;37474;59.468;18.040;2022-12-26T07:33:35;101024.41;;;1.44;100.00
50380;BME280;37474;59.468;18.040;2022-12-26T07:36:05;101021.81;;;1.49;100.00
50380;BME280;37474;59.468;18.040;2022-12-26T07:38:33;101014.19;;;1.46;100.00
50380;BME280;37474;59.468;18.040;2022-12-26T07:41:01;100981.16;;;1.24;100.00
50380;BME280;37474;59.468;18.040;2022-12-26T07:43:51;100986.25;;;1.26;100.00
50380;BME280;37474;59.468;18.040;2022-12-26T07:46:19;101015.06;;;1.45;100.00
50380;BME280;37474;59.468;18.040;2022-12-26T07:48:47;101012.44;;;1.49;100.00
50380;BME280;37474;59.468;18.040;2022-12-26T07:51:15;101019.28;;;1.46;100.00
50380;BME280;37474;59.468;18.040;2022-12-26T07:53:43;101013.28;;;1.48;100.00
50380;BME280;37474;59.468;18.040;2022-12-26T07:56:11;101017.53;;;1.51;100.00
50380;BME280;37474;59.468;18.040;2022-12-26T07:58:39;101008.16;;;1.51;100.00
50380;BME280;37474;59.468;18.040;2022-12-26T08:01:08;101011.59;;;1.49;100.00
50380;BME280;37474;59.468;18.040;2022-12-26T08:03:36;101006.41;;;1.55;100.00
50380;BME280;37474;59.468;18.040;2022-12-26T08:06:05;101003.88;;;1.53;100.00
50380;BME280;37474;59.468;18.040;2022-12-26T08:08:33;101002.13;;;1.58;100.00
50380;BME280;37474;59.468;18.040;2022-12-26T08:11:02;100997.06;;;1.54;100.00
50380;BME280;37474;59.468;18.040;2022-12-26T08:13:31;101003.00;;;1.54;100.00
50380;BME280;37474;59.468;18.040;2022-12-26T08:16:03;100995.31;;;1.59;100.00
50380;BME280;37474;59.468;18.040;2022-12-26T08:18:33;100998.69;;;1.59;100.00
50380;BME280;37474;59.468;18.040;2022-12-26T08:21:01;100997.84;;;1.61;100.00
50380;BME280;37474;59.468;18.040;2022-12-26T08:23:29;101001.25;;;1.61;100.00
50380;BME280;37474;59.468;18.040;2022-12-26T08:25:57;100993.53;;;1.64;100.00
50380;BME280;37474;59.468;18.040;2022-12-26T08:28:25;100969.00;;;1.51;100.00
50380;BME280;37474;59.468;18.040;2022-12-26T08:30:53;100988.41;;;1.69;100.00
50380;BME280;37474;59.468;18.040;2022-12-26T08:33:21;100994.38;;;1.66;100.00
50380;BME280;37474;59.468;18.040;2022-12-26T08:35:50;100980.69;;;1.72;100.00
50380;BME280;37474;59.468;18.040;2022-12-26T08:38:18;100951.94;;;1.53;100.00
50380;BME280;37474;59.468;18.040;2022-12-26T08:40:52;100977.28;;;1.71;100.00
50380;BME280;37474;59.468;18.040;2022-12-26T08:43:21;100972.09;;;1.77;100.00
50380;BME280;37474;59.468;18.040;2022-12-26T08:46:11;100969.50;;;1.82;100.00
50380;BME280;37474;59.468;18.040;2022-12-26T08:48:39;100968.66;;;1.80;100.00
50380;BME280;37474;59.468;18.040;2022-12-26T08:51:13;100950.06;;;1.69;100.00
50380;BME280;37474;59.468;18.040;2022-12-26T08:53:41;100965.28;;;1.78;100.00
50380;BME280;37474;59.468;18.040;2022-12-26T08:56:11;100968.56;;;1.88;100.00
50380;BME280;37474;59.468;18.040;2022-12-26T08:58:40;100963.53;;;1.81;100.00
50380;BME280;37474;59.468;18.040;2022-12-26T09:01:11;100963.47;;;1.89;100.00
50380;BME280;37474;59.468;18.040;2022-12-26T09:03:39;100963.38;;;1.94;100.00
50380;BME280;37474;59.468;18.040;2022-12-26T09:06:09;100926.13;;;1.74;100.00
50380;BME280;37474;59.468;18.040;2022-12-26T09:08:37;100957.44;;;1.95;100.00
50380;BME280;37474;59.468;18.040;2022-12-26T09:11:08;100944.69;;;1.89;100.00
50380;BME280;37474;59.468;18.040;2022-12-26T09:13:37;100959.97;;;1.95;100.00
50380;BME280;37474;59.468;18.040;2022-12-26T09:16:07;100954.00;;;1.96;100.00
50380;BME280;37474;59.468;18.040;2022-12-26T09:18:36;100963.44;;;1.91;100.00
50380;BME280;37474;59.468;18.040;2022-12-26T09:21:05;100953.22;;;1.88;100.00
50380;BME280;37474;59.468;18.040;2022-12-26T09:23:35;100932.84;;;1.81;100.00
50380;BME280;37474;59.468;18.040;2022-12-26T09:26:04;100937.94;;;1.84;100.00
50380;BME280;37474;59.468;18.040;2022-12-26T09:28:33;100929.47;;;1.81;100.00
50380;BME280;37474;59.468;18.040;2022-12-26T09:31:01;100929.41;;;1.85;100.00
50380;BME280;37474;59.468;18.040;2022-12-26T09:33:31;100931.97;;;1.82;100.00
50380;BME280;37474;59.468;18.040;2022-12-26T09:36:03;100924.38;;;1.79;100.00
50380;BME280;37474;59.468;18.040;2022-12-26T09:38:41;100928.59;;;1.82;100.00
50380;BME280;37474;59.468;18.040;2022-12-26T09:41:25;100928.63;;;1.77;100.00
50380;BME280;37474;59.468;18.040;2022-12-26T09:44:02;100855.00;;;1.38;100.00
50380;BME280;37474;59.468;18.040;2022-12-26T09:46:35;100918.41;;;1.77;100.00
50380;BME280;37474;59.468;18.040;2022-12-26T09:49:10;100860.94;;;1.41;100.00
50380;BME280;37474;59.468;18.040;2022-12-26T09:51:42;100912.56;;;1.69;100.00
50380;BME280;37474;59.468;18.040;2022-12-26T09:54:18;100911.66;;;1.75;100.00
50380;BME280;37474;59.468;18.040;2022-12-26T09:56:49;100900.53;;;1.77;100.00
50380;BME280;37474;59.468;18.040;2022-12-26T09:59:31;100861.59;;;1.57;100.00
50380;BME280;37474;59.468;18.040;2022-12-26T10:02:00;100897.97;;;1.79;100.00
50380;BME280;37474;59.468;18.040;2022-12-26T10:04:28;100896.28;;;1.76;100.00
50380;BME280;37474;59.468;18.040;2022-12-26T10:07:04;100884.34;;;1.77;100.00
50380;BME280;37474;59.468;18.040;2022-12-26T10:09:51;100886.03;;;1.79;100.00
50380;BME280;37474;59.468;18.040;2022-12-26T10:12:33;100878.38;;;1.79;100.00
50380;BME280;37474;59.468;18.040;2022-12-26T10:18:02;100865.56;;;1.81;100.00
50380;BME280;37474;59.468;18.040;2022-12-26T10:20:45;100875.75;;;1.84;100.00
50380;BME280;37474;59.468;18.040;2022-12-26T10:23:29;100869.72;;;1.90;100.00
50380;BME280;37474;59.468;18.040;2022-12-26T10:26:03;100865.44;;;1.89;100.00
50380;BME280;37474;59.468;18.040;2022-12-26T10:28:35;100860.47;;;1.79;100.00
50380;BME280;37474;59.468;18.040;2022-12-26T10:31:11;100859.56;;;1.82;100.00
50380;BME280;37474;59.468;18.040;2022-12-26T10:33:45;100852.66;;;1.89;100.00
50380;BME280;37474;59.468;18.040;2022-12-26T10:36:25;100850.03;;;1.93;100.00
50380;BME280;37474;59.468;18.040;2022-12-26T10:38:55;100819.72;;;1.69;100.00
50380;BME280;37474;59.468;18.040;2022-12-26T10:41:33;100840.78;;;1.86;100.00
50380;BME280;37474;59.468;18.040;2022-12-26T10:44:02;100835.59;;;1.91;100.00
50380;BME280;37474;59.468;18.040;2022-12-26T10:49:23;100835.66;;;1.86;100.00
50380;BME280;37474;59.468;18.040;2022-12-26T10:51:55;100831.41;;;1.85;100.00
50380;BME280;37474;59.468;18.040;2022-12-26T10:54:25;100829.72;;;1.85;100.00
50380;BME280;37474;59.468;18.040;2022-12-26T10:56:56;100795.81;;;1.73;100.00
50380;BME280;37474;59.468;18.040;2022-12-26T10:59:43;100832.97;;;1.95;100.00
50380;BME280;37474;59.468;18.040;2022-12-26T11:02:15;100832.91;;;1.98;100.00
50380;BME280;37474;59.468;18.040;2022-12-26T11:05:00;100801.72;;;1.75;100.00
50380;BME280;37474;59.468;18.040;2022-12-26T11:07:50;100761.91;;;1.60;100.00
50380;BME280;37474;59.468;18.040;2022-12-26T11:10:23;100815.97;;;1.93;100.00
50380;BME280;37474;59.468;18.040;2022-12-26T11:12:55;100766.06;;;1.67;100.00
50380;BME280;37474;59.468;18.040;2022-12-26T11:15:30;100797.25;;;1.91;100.00
50380;BME280;37474;59.468;18.040;2022-12-26T11:18:08;100799.00;;;1.87;100.00
50380;BME280;37474;59.468;18.040;2022-12-26T11:20:42;100800.53;;;1.99;100.00
50380;BME280;37474;59.468;18.040;2022-12-26T11:23:25;100751.53;;;1.72;100.00
50380;BME280;37474;59.468;18.040;2022-12-26T11:25:55;100762.50;;;1.77;100.00
50380;BME280;37474;59.468;18.040;2022-12-26T11:28:30;100789.53;;;1.94;100.00
50380;BME280;37474;59.468;18.040;2022-12-26T11:31:03;100787.91;;;1.90;100.00
50380;BME280;37474;59.468;18.040;2022-12-26T11:33:33;100786.13;;;1.95;100.00
50380;BME280;37474;59.468;18.040;2022-12-26T11:36:09;100784.41;;;1.95;100.00
50380;BME280;37474;59.468;18.040;2022-12-26T11:38:48;100719.38;;;1.54;100.00
50380;BME280;37474;59.468;18.040;2022-12-26T11:41:31;100737.13;;;1.65;100.00
50380;BME280;37474;59.468;18.040;2022-12-26T11:44:10;100721.03;;;1.58;100.00
50380;BME280;37474;59.468;18.040;2022-12-26T11:46:42;100776.81;;;1.91;100.00
50380;BME280;37474;59.468;18.040;2022-12-26T11:49:17;100763.13;;;1.93;100.00
50380;BME280;37474;59.468;18.040;2022-12-26T11:51:47;100774.09;;;2.00;100.00
50380;BME280;37474;59.468;18.040;2022-12-26T11:54:27;100776.56;;;2.04;100.00
50380;BME280;37474;59.468;18.040;2022-12-26T11:57:12;100740.22;;;1.85;100.00
50380;BME280;37474;59.468;18.040;2022-12-26T11:59:43;100768.97;;;2.01;100.00
50380;BME280;37474;59.468;18.040;2022-12-26T12:02:27;100767.25;;;2.02;100.00
50380;BME280;37474;59.468;18.040;2022-12-26T12:05:00;100763.88;;;1.98;100.00
50380;BME280;37474;59.468;18.040;2022-12-26T12:07:46;100758.75;;;2.00;100.00
50380;BME280;37474;59.468;18.040;2022-12-26T12:10:33;100750.22;;;1.99;100.00
50380;BME280;37474;59.468;18.040;2022-12-26T12:13:09;100686.81;;;1.69;100.00
50380;BME280;37474;59.468;18.040;2022-12-26T12:15:47;100734.78;;;2.07;100.00
50380;BME280;37474;59.468;18.040;2022-12-26T12:18:24;100728.06;;;2.01;100.00
50380;BME280;37474;59.468;18.040;2022-12-26T12:21:05;100725.53;;;1.98;100.00
50380;BME280;37474;59.468;18.040;2022-12-26T12:23:46;100723.00;;;1.97;100.00
50380;BME280;37474;59.468;18.040;2022-12-26T12:26:24;100720.50;;;1.94;100.00
50380;BME280;37474;59.468;18.040;2022-12-26T12:29:06;100705.22;;;1.91;100.00
50380;BME280;37474;59.468;18.040;2022-12-26T12:31:46;100690.69;;;1.93;100.00
50380;BME280;37474;59.468;18.040;2022-12-26T12:34:20;100688.09;;;1.94;100.00
50380;BME280;37474;59.468;18.040;2022-12-26T12:36:58;100685.56;;;1.93;100.00
50380;BME280;37474;59.468;18.040;2022-12-26T12:39:37;100677.03;;;1.94;100.00
50380;BME280;37474;59.468;18.040;2022-12-26T12:42:25;100614.69;;;1.50;100.00
50380;BME280;37474;59.468;18.040;2022-12-26T12:45:16;100631.56;;;1.62;100.00
50380;BME280;37474;59.468;18.040;2022-12-26T12:48:15;100663.66;;;1.79;100.00
50380;BME280;37474;59.468;18.040;2022-12-26T12:50:51;100671.22;;;1.85;100.00
50380;BME280;37474;59.468;18.040;2022-12-26T12:53:35;100657.59;;;1.85;100.00
50380;BME280;37474;59.468;18.040;2022-12-26T12:56:18;100661.00;;;1.85;100.00
50380;BME280;37474;59.468;18.040;2022-12-26T12:58:56;100620.56;;;1.58;100.00
50380;BME280;37474;59.468;18.040;2022-12-26T13:01:31;100651.59;;;1.86;100.00
50380;BME280;37474;59.468;18.040;2022-12-26T13:04:07;100651.63;;;1.84;100.00
50380;BME280;37474;59.468;18.040;2022-12-26T13:06:39;100630.59;;;1.69;100.00
50380;BME280;37474;59.468;18.040;2022-12-26T13:09:13;100621.97;;;1.74;100.00
50380;BME280;37474;59.468;18.040;2022-12-26T13:11:45;100642.22;;;1.87;100.00
50380;BME280;37474;59.468;18.040;2022-12-26T13:14:20;100636.25;;;1.86;100.00
50380;BME280;37474;59.468;18.040;2022-12-26T13:16:52;100634.63;;;1.82;100.00
50380;BME280;37474;59.468;18.040;2022-12-26T13:19:25;100633.66;;;1.89;100.00
50380;BME280;37474;59.468;18.040;2022-12-26T13:21:57;100635.47;;;1.84;100.00
50380;BME280;37474;59.468;18.040;2022-12-26T13:24:33;100637.19;;;1.82;100.00
50380;BME280;37474;59.468;18.040;2022-12-26T13:27:05;100638.94;;;1.80;100.00
50380;BME280;37474;59.468;18.040;2022-12-26T13:30:01;100630.38;;;1.81;100.00
50380;BME280;37474;59.468;18.040;2022-12-26T13:32:33;100638.09;;;1.79;100.00
50380;BME280;37474;59.468;18.040;2022-12-26T13:35:03;100643.09;;;1.85;100.00
50380;BME280;37474;59.468;18.040;2022-12-26T13:37:56;100637.19;;;1.82;100.00
50380;BME280;37474;59.468;18.040;2022-12-26T13:40:29;100636.25;;;1.86;100.00
50380;BME280;37474;59.468;18.040;2022-12-26T13:43:01;100630.31;;;1.85;100.00